Time;durP1;ratioP1;P1;durP2;ratioP2;P2;SDS_P1;SDS_P2;PMS_P1;PMS_P2;Temp;Humidity;BMP_temperature;BMP_pressure;BME280_temperature;BME280_humidity;BME280_pressure;Samples;Min_cycle;Max_cycle;Signal;HPM_P1;HPM_P2
2021/11/01 00:01:05;;;;;;;62.80;41.00;;;;;;;6.38;51.39;101066.63;117401;1176;24280;-59
2021/11/01 00:03:33;;;;;;;59.00;39.10;;;;;;;6.43;51.42;101062.67;117410;1185;21851;-60
2021/11/01 00:06:06;;;;;;;67.60;40.80;;;;;;;6.41;51.53;101062.65;117458;1182;23446;-60
2021/11/01 00:08:38;;;;;;;56.50;37.40;;;;;;;6.37;51.46;101065.20;117258;1183;22901;-59
2021/11/01 00:11:06;;;;;;;55.90;38.30;;;;;;;6.35;51.58;101062.73;117344;1184;23573;-61
2021/11/01 00:13:35;;;;;;;57.30;38.70;;;;;;;6.39;51.53;101062.97;117424;1186;23436;-60
2021/11/01 00:16:04;;;;;;;58.80;39.80;;;;;;;6.38;51.54;101059.65;117390;1183;24229;-60
2021/11/01 00:18:34;;;;;;;59.10;39.90;;;;;;;6.37;51.42;101059.10;117393;1188;21855;-62
2021/11/01 00:21:03;;;;;;;57.30;38.20;;;;;;;6.34;51.68;101055.57;117402;1186;23580;-59
2021/11/01 00:23:32;;;;;;;59.70;37.80;;;;;;;6.33;51.40;101046.31;117388;1186;23465;-59
2021/11/01 00:26:00;;;;;;;58.50;37.70;;;;;;;6.28;51.65;101043.26;117426;1180;22939;-60
2021/11/01 00:28:29;;;;;;;53.90;35.60;;;;;;;6.22;51.41;101046.65;117404;1186;23466;-60
2021/11/01 00:30:57;;;;;;;59.00;39.50;;;;;;;6.22;51.26;101051.36;117465;1186;21851;-60
2021/11/01 00:33:26;;;;;;;60.20;37.90;;;;;;;6.27;51.43;101052.50;117438;1185;22931;-61
2021/11/01 00:35:55;;;;;;;55.80;37.70;;;;;;;6.29;51.34;101048.69;117437;1186;21937;-61
2021/11/01 00:38:23;;;;;;;55.50;36.50;;;;;;;6.29;51.32;101041.89;117384;1186;21854;-62
2021/11/01 00:40:51;;;;;;;57.10;37.40;;;;;;;6.28;51.14;101041.52;117435;1182;22740;-62
2021/11/01 00:43:19;;;;;;;55.80;36.00;;;;;;;6.25;51.37;101041.48;117342;1185;23439;-59
2021/11/01 00:45:47;;;;;;;54.50;37.60;;;;;;;6.23;51.12;101038.14;117334;1185;22316;-60
2021/11/01 00:48:17;;;;;;;60.80;38.10;;;;;;;6.22;51.25;101036.35;117363;1185;21881;-59
2021/11/01 00:50:46;;;;;;;56.40;37.70;;;;;;;6.20;51.15;101037.73;117406;1185;22951;-60
2021/11/01 00:53:14;;;;;;;55.50;35.70;;;;;;;6.17;51.26;101037.16;117426;1183;21938;-62
2021/11/01 00:55:50;;;;;;;56.90;38.20;;;;;;;6.14;51.34;101036.59;117204;1188;22956;-59
2021/11/01 00:58:19;;;;;;;58.60;35.50;;;;;;;6.11;51.02;101039.34;117341;1185;21860;-61
2021/11/01 01:00:48;;;;;;;54.40;36.80;;;;;;;6.08;51.05;101037.02;117344;1186;21910;-59
2021/11/01 01:03:17;;;;;;;60.80;38.50;;;;;;;6.05;51.21;101029.81;117336;1186;22608;-62
2021/11/01 01:05:58;;;;;;;56.20;35.70;;;;;;;6.03;51.31;101026.65;117319;1182;23845;-61
2021/11/01 01:08:27;;;;;;;;;;;;;;;5.99;51.13;101026.58;117347;1183;22822;-62
2021/11/01 01:10:55;;;;;;;49.40;33.30;;;;;;;5.92;51.48;101018.96;117228;1186;21944;-61
2021/11/01 01:13:28;;;;;;;50.50;34.70;;;;;;;5.89;51.22;101018.39;117298;1186;22684;-62
2021/11/01 01:18:38;;;;;;;57.70;34.90;;;;;;;5.87;51.52;101008.59;117367;1183;23616;-60
2021/11/01 01:23:56;;;;;;;51.40;34.20;;;;;;;5.84;51.28;101013.92;117324;1185;24608;-62
2021/11/01 01:26:25;;;;;;;46.80;32.60;;;;;;;5.88;51.16;101009.65;117402;1186;23535;-60
2021/11/01 01:28:53;;;;;;;47.60;32.60;;;;;;;5.81;51.31;101009.17;117330;1182;21868;-62
2021/11/01 01:31:21;;;;;;;49.90;32.70;;;;;;;5.78;51.16;101002.34;117373;1186;21894;-62
2021/11/01 01:33:49;;;;;;;55.90;35.00;;;;;;;5.77;51.24;101001.27;117359;1185;21854;-59
2021/11/01 01:36:18;;;;;;;49.40;33.70;;;;;;;5.76;51.43;100997.25;117380;1185;24189;-61
2021/11/01 01:38:46;;;;;;;49.50;33.70;;;;;;;5.74;51.20;100996.88;117187;1186;21848;-59
2021/11/01 01:41:34;;;;;;;51.20;33.90;;;;;;;5.73;51.34;100995.47;117321;1186;24282;-62
2021/11/01 01:44:03;;;;;;;50.10;33.00;;;;;;;5.74;51.29;100989.90;117340;1185;21844;-62
2021/11/01 01:46:31;;;;;;;50.40;32.70;;;;;;;5.73;51.17;100989.89;117369;1183;24152;-59
2021/11/01 01:49:00;;;;;;;46.60;33.30;;;;;;;5.74;51.43;100988.51;117384;1186;23597;-59
2021/11/01 01:51:29;;;;;;;48.70;33.10;;;;;;;5.74;51.40;100990.24;117386;1186;22806;-59
2021/11/01 01:53:58;;;;;;;46.10;33.10;;;;;;;5.75;51.48;100989.21;117391;1185;21857;-60
2021/11/01 01:56:26;;;;;;;50.40;31.70;;;;;;;5.75;51.32;100996.02;117388;1185;22991;-59
2021/11/01 01:59:01;;;;;;;52.20;33.50;;;;;;;5.76;51.30;100997.76;117269;1186;23455;-60
2021/11/01 02:01:29;;;;;;;47.80;33.20;;;;;;;5.78;51.36;100993.80;117397;1186;22621;-62
2021/11/01 02:03:58;;;;;;;47.70;32.40;;;;;;;5.80;51.40;100994.36;117419;1176;21849;-60
2021/11/01 02:06:59;;;;;;;48.80;33.00;;;;;;;5.84;51.66;100993.20;117214;1186;22959;-60
2021/11/01 02:09:40;;;;;;;44.20;30.50;;;;;;;5.88;51.56;100994.14;117284;1185;23452;-63
2021/11/01 02:12:15;;;;;;;51.00;33.50;;;;;;;5.92;51.29;100995.09;117038;1184;22034;-60
2021/11/01 02:14:50;;;;;;;51.80;31.80;;;;;;;5.97;51.69;100992.39;117411;1183;21926;-60
2021/11/01 02:17:27;;;;;;;49.10;31.60;;;;;;;6.02;51.65;100994.94;117420;1186;21874;-62
2021/11/01 02:19:57;;;;;;;50.20;32.60;;;;;;;6.08;51.77;100993.64;117395;1182;21868;-60
2021/11/01 02:22:51;;;;;;;48.20;31.60;;;;;;;6.15;51.60;100994.11;117386;1186;21861;-63
2021/11/01 02:25:31;;;;;;;49.60;32.40;;;;;;;6.22;51.94;100993.86;117344;1185;22777;-59
2021/11/01 02:27:59;;;;;;;50.10;34.50;;;;;;;6.30;51.90;100990.30;117332;1184;22320;-62
2021/11/01 02:30:27;;;;;;;52.30;33.40;;;;;;;6.36;51.87;100991.27;117275;1185;24214;-63
2021/11/01 02:32:55;;;;;;;54.10;33.00;;;;;;;6.41;51.84;100991.00;117325;1185;22286;-60
2021/11/01 02:35:24;;;;;;;47.60;31.10;;;;;;;6.47;51.95;100988.65;117185;1188;23452;-63
2021/11/01 02:37:52;;;;;;;51.50;34.40;;;;;;;6.54;51.79;100989.62;117165;1183;22570;-60
2021/11/01 02:40:27;;;;;;;50.70;31.80;;;;;;;6.59;51.80;100987.08;117363;1185;21848;-60
2021/11/01 02:42:56;;;;;;;51.00;33.00;;;;;;;6.65;51.92;100985.40;117341;1181;23897;-64
2021/11/01 02:45:25;;;;;;;51.60;32.90;;;;;;;6.69;51.59;100979.35;117444;1185;21851;-64
2021/11/01 02:47:53;;;;;;;48.80;29.70;;;;;;;6.74;51.86;100979.07;117512;1186;21892;-60
2021/11/01 02:50:21;;;;;;;50.10;31.70;;;;;;;6.77;51.81;100978.94;117410;1186;21867;-64
2021/11/01 02:52:50;;;;;;;51.90;31.80;;;;;;;6.81;51.88;100978.82;117425;1185;23468;-64
2021/11/01 02:55:20;;;;;;;59.60;32.90;;;;;;;6.85;52.10;100974.49;117315;1185;24161;-60
2021/11/01 02:57:48;;;;;;;48.20;32.10;;;;;;;6.89;51.84;100971.41;117412;1185;23461;-60
2021/11/01 03:00:18;;;;;;;54.80;34.60;;;;;;;6.93;52.02;100966.39;117421;1186;21861;-60
2021/11/01 03:02:48;;;;;;;55.10;32.80;;;;;;;6.99;52.01;100962.27;117453;1182;23566;-60
2021/11/01 03:05:19;;;;;;;50.90;32.10;;;;;;;7.03;51.77;100959.54;117395;1186;21851;-60
2021/11/01 03:07:48;;;;;;;52.50;33.10;;;;;;;7.07;52.00;100961.84;117363;1186;22805;-64
2021/11/01 03:10:18;;;;;;;55.80;34.30;;;;;;;7.12;51.84;100969.41;117321;1186;21845;-64
2021/11/01 03:12:47;;;;;;;55.40;35.10;;;;;;;7.17;51.87;100976.10;117442;1186;21854;-60
2021/11/01 03:15:24;;;;;;;60.80;33.50;;;;;;;7.24;51.91;100980.02;117507;1186;22616;-64
2021/11/01 03:18:03;;;;;;;57.70;33.50;;;;;;;7.28;52.02;100979.20;117469;1182;21939;-60
2021/11/01 03:20:40;;;;;;;55.40;32.60;;;;;;;7.34;52.11;100978.02;117473;1185;21865;-64
2021/11/01 03:23:30;;;;;;;51.90;33.90;;;;;;;7.39;51.99;100967.95;117439;1182;24314;-63
2021/11/01 03:26:08;;;;;;;46.90;30.20;;;;;;;7.44;51.99;100965.55;117435;1185;24149;-60
2021/11/01 03:28:37;;;;;;;55.90;34.10;;;;;;;7.49;52.09;100957.23;117257;1186;23469;-60
2021/11/01 03:31:05;;;;;;;56.50;33.60;;;;;;;7.54;52.27;100959.89;117391;1185;21989;-63
2021/11/01 03:33:37;;;;;;;61.30;36.40;;;;;;;7.61;52.04;100960.48;117507;1185;23635;-60
2021/11/01 03:36:07;;;;;;;62.70;34.90;;;;;;;7.66;51.96;100960.00;117412;1179;21851;-63
2021/11/01 03:38:36;;;;;;;57.30;34.40;;;;;;;7.70;52.11;100958.65;117543;1185;21872;-64
2021/11/01 03:41:11;;;;;;;55.60;34.80;;;;;;;7.75;52.17;100959.55;117473;1185;23541;-64
2021/11/01 03:43:43;;;;;;;59.20;36.00;;;;;;;7.81;52.04;100963.63;117452;1186;21903;-60
2021/11/01 03:46:12;;;;;;;60.70;37.50;;;;;;;7.86;52.20;100959.65;117580;1186;21999;-60
2021/11/01 03:48:43;;;;;;;63.90;36.20;;;;;;;7.90;52.19;100959.50;117482;1186;23520;-60
2021/11/01 03:51:16;;;;;;;65.00;37.30;;;;;;;7.96;52.12;100957.27;117504;1180;22918;-60
2021/11/01 03:53:44;;;;;;;68.20;41.20;;;;;;;8.07;52.14;100955.44;117452;1182;23475;-61
2021/11/01 03:56:13;;;;;;;67.50;40.70;;;;;;;8.13;52.28;100951.83;117423;1185;21936;-61
2021/11/01 03:58:41;;;;;;;59.40;38.90;;;;;;;8.15;52.14;100957.61;117390;1182;23605;-60
2021/11/01 04:01:09;;;;;;;64.10;40.00;;;;;;;8.17;52.15;100959.52;117397;1183;23550;-60
2021/11/01 04:03:38;;;;;;;61.10;39.30;;;;;;;8.20;52.19;100959.19;117462;1184;22942;-60
2021/11/01 04:06:07;;;;;;;66.50;38.10;;;;;;;8.22;52.21;100956.59;117320;1186;23436;-60
2021/11/01 04:08:36;;;;;;;82.30;46.50;;;;;;;8.19;52.11;100956.74;117457;1186;21858;-60
2021/11/01 04:11:04;;;;;;;61.10;40.30;;;;;;;8.17;52.27;100954.46;117455;1183;23713;-60
2021/11/01 04:13:34;;;;;;;64.10;38.50;;;;;;;8.16;52.17;100951.14;117357;1185;24159;-59
2021/11/01 04:16:10;;;;;;;62.30;37.90;;;;;;;8.17;52.14;100953.41;117325;1183;21856;-59
2021/11/01 04:19:01;;;;;;;55.60;35.90;;;;;;;8.21;52.36;100950.11;117403;1180;21852;-60
2021/11/01 04:21:29;;;;;;;63.70;38.00;;;;;;;8.24;52.52;100946.12;117408;1186;21861;-59
2021/11/01 04:23:59;;;;;;;66.10;37.20;;;;;;;8.26;52.42;100942.45;117398;1185;21847;-60
2021/11/01 04:26:27;;;;;;;56.90;37.00;;;;;;;8.30;52.41;100940.73;117500;1184;21882;-59
2021/11/01 04:28:56;;;;;;;55.10;35.80;;;;;;;8.41;52.30;100941.31;117524;1184;21855;-59
2021/11/01 04:31:30;;;;;;;63.10;38.50;;;;;;;8.46;52.28;100938.20;117545;1185;21861;-60
2021/11/01 04:34:03;;;;;;;55.20;35.90;;;;;;;8.50;52.33;100931.60;117511;1185;23461;-61
2021/11/01 04:36:31;;;;;;;51.50;36.00;;;;;;;8.53;52.18;100932.66;117570;1183;21860;-61
2021/11/01 04:39:08;;;;;;;61.60;35.60;;;;;;;8.56;52.35;100929.37;117452;1185;21867;-60
2021/11/01 04:55:27;;;;;;;58.10;38.10;;;;;;;8.75;52.43;100920.87;116978;1188;22729;-60
2021/11/01 04:57:57;;;;;;;54.30;35.50;;;;;;;8.77;52.23;100920.89;117010;1186;21850;-59
2021/11/01 05:00:26;;;;;;;50.70;34.10;;;;;;;8.79;52.38;100916.52;116996;1189;21859;-59
2021/11/01 05:03:59;;;;;;;52.10;35.60;;;;;;;8.80;52.40;100906.55;117027;1186;22923;-58
2021/11/01 05:05:51;;;;;;;51.40;34.00;;;;;;;8.85;52.22;100904.98;117009;1188;22911;-59
2021/11/01 05:08:23;;;;;;;50.70;34.50;;;;;;;8.94;52.18;100898.54;117104;1188;23548;-59
2021/11/01 05:10:55;;;;;;;52.70;33.90;;;;;;;8.98;52.15;100901.34;117127;1186;21876;-58
2021/11/01 05:13:31;;;;;;;50.20;35.00;;;;;;;8.99;52.02;100906.08;117130;1186;24161;-59
2021/11/01 05:16:08;;;;;;;56.20;37.00;;;;;;;9.01;52.05;100901.54;117298;1184;21851;-59
2021/11/01 05:21:32;;;;;;;49.80;33.40;;;;;;;9.04;52.06;100899.95;117465;1179;23563;-58
2021/11/01 05:24:04;;;;;;;52.10;33.00;;;;;;;9.06;52.28;100891.20;117516;1176;21883;-59
2021/11/01 05:29:13;;;;;;;54.90;34.90;;;;;;;9.15;52.36;100887.73;117483;1185;21854;-58
2021/11/01 05:34:36;;;;;;;55.20;35.10;;;;;;;9.25;52.29;100890.38;117221;1185;21899;-60
2021/11/01 05:37:05;;;;;;;57.00;34.70;;;;;;;9.29;52.37;100887.05;117351;1180;23465;-60
2021/11/01 05:39:34;;;;;;;49.10;33.60;;;;;;;9.31;52.29;100886.52;117427;1182;22094;-62
2021/11/01 05:42:04;;;;;;;52.60;34.20;;;;;;;9.32;52.18;100887.23;117411;1186;21858;-60
2021/11/01 05:44:32;;;;;;;50.30;33.60;;;;;;;9.35;52.24;100887.58;117402;1185;24165;-61
2021/11/01 05:47:00;;;;;;;49.30;33.20;;;;;;;9.39;52.12;100891.96;117277;1180;21855;-61
2021/11/01 05:49:29;;;;;;;54.50;36.30;;;;;;;9.42;52.14;100895.64;117897;1185;21854;-62
2021/11/01 05:51:58;;;;;;;53.40;36.50;;;;;;;9.46;52.24;100896.70;118375;1183;21909;-59
2021/11/01 05:54:31;;;;;;;51.40;37.00;;;;;;;9.49;52.29;100897.74;117358;1183;21889;-60
2021/11/01 05:57:17;;;;;;;54.70;37.20;;;;;;;9.49;52.32;100898.63;117371;1183;21867;-59
2021/11/01 06:00:06;;;;;;;54.30;39.00;;;;;;;9.54;52.40;100887.77;117382;1182;23344;-59
2021/11/01 06:10:50;;;;;;;55.90;41.60;;;;;;;9.81;52.46;100885.83;117037;1186;23546;-59
2021/11/01 06:13:30;;;;;;;60.10;40.70;;;;;;;9.90;52.43;100885.48;117559;1184;23439;-60
2021/11/01 06:16:00;;;;;;;63.30;39.40;;;;;;;9.99;52.52;100888.07;117352;1183;23475;-59
2021/11/01 06:18:36;;;;;;;55.40;38.90;;;;;;;10.08;52.54;100883.33;117335;1185;21858;-59
2021/11/01 06:21:05;;;;;;;52.40;36.80;;;;;;;10.17;52.70;100881.56;117255;1183;21854;-60
2021/11/01 06:23:34;;;;;;;55.80;37.80;;;;;;;10.24;52.55;100882.76;117361;1186;23442;-59
2021/11/01 06:26:03;;;;;;;54.10;37.20;;;;;;;10.29;52.61;100887.14;117373;1182;23478;-59
2021/11/01 06:28:33;;;;;;;51.10;37.20;;;;;;;10.35;52.55;100884.67;117330;1185;22800;-59
2021/11/01 06:31:08;;;;;;;51.50;36.10;;;;;;;10.43;52.66;100882.73;117341;1186;23218;-59
2021/11/01 06:58:48;;;;;;;46.10;34.90;;;;;;;11.17;52.47;100858.30;117393;1183;23469;-60
2021/11/01 07:15:02;;;;;;;56.30;36.50;;;;;;;11.52;52.61;100858.90;117381;1182;23462;-61
2021/11/01 07:23:07;;;;;;;48.40;34.30;;;;;;;11.73;52.55;100865.57;117490;1186;21848;-60
2021/11/01 08:22:23;;;;;;;52.80;35.90;;;;;;;12.63;52.40;100835.39;117301;1186;21857;-60
2021/11/01 09:06:14;;;;;;;42.60;29.90;;;;;;;13.34;52.74;100827.45;117373;1183;22461;-60
2021/11/01 09:24:41;;;;;;;66.80;33.90;;;;;;;13.19;52.91;100800.75;117392;1184;23467;-60
2021/11/01 09:27:14;;;;;;;84.40;36.20;;;;;;;13.20;52.94;100801.77;117498;1185;22712;-59
2021/11/01 09:30:12;;;;;;;51.50;30.70;;;;;;;13.24;53.12;100803.30;117463;1183;21839;-58
2021/11/01 09:41:12;;;;;;;49.40;27.00;;;;;;;13.54;52.60;100797.89;117243;1183;23439;-61
2021/11/01 09:43:43;;;;;;;42.60;26.90;;;;;;;13.56;52.66;100800.33;117369;1182;22832;-59
2021/11/01 09:46:12;;;;;;;43.60;27.70;;;;;;;13.57;52.54;100801.70;117354;1184;23544;-60
2021/11/01 09:48:40;;;;;;;43.20;28.60;;;;;;;13.53;52.49;100801.27;117331;1182;23631;-60
2021/11/01 09:51:09;;;;;;;38.10;27.40;;;;;;;13.53;52.62;100800.36;117380;1185;23469;-59
2021/11/01 09:53:45;;;;;;;44.50;26.70;;;;;;;13.56;52.69;100797.85;117347;1185;21864;-59
2021/11/01 09:56:40;;;;;;;41.30;27.70;;;;;;;13.59;52.65;100794.44;117287;1185;23464;-62
2021/11/01 09:59:12;;;;;;;40.00;27.60;;;;;;;13.62;52.75;100790.88;117409;1183;21855;-61
2021/11/01 10:01:52;;;;;;;36.90;26.70;;;;;;;13.63;52.71;100785.75;117526;1185;21883;-59
2021/11/01 10:04:24;;;;;;;40.30;26.20;;;;;;;13.66;52.64;100783.91;117474;1182;23242;-60
2021/11/01 10:07:15;;;;;;;;;;;;;;;13.66;52.65;100779.52;117409;1185;24139;-61
2021/11/01 10:09:51;;;;;;;147.60;59.10;;;;;;;13.63;52.65;100775.69;117364;1185;21888;-61
2021/11/01 10:12:22;;;;;;;175.20;48.10;;;;;;;13.63;52.69;100776.58;117266;1183;21865;-61
2021/11/01 10:14:58;;;;;;;256.50;62.70;;;;;;;13.70;52.85;100777.31;118969;1184;22915;-60
2021/11/01 10:17:34;;;;;;;115.10;39.60;;;;;;;13.84;53.02;100770.54;117552;1185;23467;-59
2021/11/01 10:20:09;;;;;;;198.30;47.80;;;;;;;13.94;53.05;100770.52;117363;1185;23637;-62
2021/11/01 10:22:41;;;;;;;120.20;39.00;;;;;;;13.96;52.85;100765.86;117374;1185;21858;-59
2021/11/01 10:25:14;;;;;;;98.90;33.70;;;;;;;13.96;52.77;100766.59;117388;1186;22915;-59
2021/11/01 10:27:53;;;;;;;453.60;106.90;;;;;;;13.96;52.75;100762.17;117366;1184;21933;-59
2021/11/01 10:30:29;;;;;;;374.00;88.60;;;;;;;13.97;52.93;100758.45;117329;1188;21892;-59
2021/11/01 10:32:59;;;;;;;518.00;120.10;;;;;;;14.04;53.13;100760.09;117375;1185;22619;-61
2021/11/01 10:35:32;;;;;;;196.20;62.50;;;;;;;14.17;53.24;100756.64;117445;1182;22914;-60
2021/11/01 10:38:13;;;;;;;98.80;40.00;;;;;;;14.24;53.10;100754.71;117382;1182;23504;-59
2021/11/01 10:44:19;;;;;;;49.60;32.90;;;;;;;14.25;52.96;100753.27;117336;1185;23439;-62
2021/11/01 11:12:17;;;;;;;76.70;27.10;;;;;;;14.30;53.02;100716.82;117373;1185;23553;-59
2021/11/01 11:14:57;;;;;;;55.30;24.50;;;;;;;14.36;52.99;100711.91;117381;1184;23568;-60
2021/11/01 11:29:35;;;;;;;30.60;21.90;;;;;;;14.61;52.95;100699.69;117425;1182;22925;-61
2021/11/01 11:43:37;;;;;;;30.40;21.10;;;;;;;14.69;52.83;100691.20;117440;1182;23442;-59
2021/11/01 11:49:10;;;;;;;28.00;21.50;;;;;;;14.81;52.78;100681.56;117416;1182;23465;-59
2021/11/01 11:51:39;;;;;;;28.90;21.70;;;;;;;14.80;52.78;100678.23;117384;1183;24149;-59
2021/11/01 11:54:09;;;;;;;29.40;21.30;;;;;;;14.82;52.80;100677.12;117317;1185;22170;-62
2021/11/01 11:56:40;;;;;;;29.80;20.90;;;;;;;14.84;52.89;100677.08;117544;1183;22515;-60
2021/11/01 11:59:10;;;;;;;30.20;21.00;;;;;;;14.85;52.80;100677.22;117706;1182;23439;-61
2021/11/01 12:01:43;;;;;;;29.30;20.30;;;;;;;14.84;52.85;100675.65;117502;1184;21852;-61
2021/11/01 12:04:25;;;;;;;28.00;19.90;;;;;;;14.85;52.71;100676.17;117442;1182;23438;-61
2021/11/01 12:07:01;;;;;;;27.50;19.80;;;;;;;14.85;52.84;100674.58;117398;1182;21840;-60
2021/11/01 12:17:27;;;;;;;25.20;18.90;;;;;;;14.94;52.89;100653.15;117380;1186;21848;-60
2021/11/01 12:20:06;;;;;;;27.00;18.40;;;;;;;14.95;52.86;100646.23;117433;1185;21857;-60
2021/11/01 12:22:42;;;;;;;25.30;18.30;;;;;;;14.96;52.83;100640.20;117458;1182;23295;-61
2021/11/01 12:25:15;;;;;;;23.80;17.30;;;;;;;14.97;52.90;100638.77;117356;1186;21855;-59
2021/11/01 12:27:59;;;;;;;29.20;18.40;;;;;;;14.98;52.83;100641.22;117428;1183;21908;-61
2021/11/01 12:30:37;;;;;;;42.20;18.50;;;;;;;14.98;52.83;100644.55;117433;1182;21862;-60
2021/11/01 12:33:06;;;;;;;25.90;17.90;;;;;;;15.02;52.86;100641.09;117389;1188;23475;-59
2021/11/01 12:35:39;;;;;;;32.80;19.50;;;;;;;15.05;52.83;100639.25;117456;1185;21855;-61
2021/11/01 12:38:14;;;;;;;28.70;18.80;;;;;;;15.06;52.85;100631.80;117366;1183;22818;-60
2021/11/01 12:41:17;;;;;;;26.80;17.90;;;;;;;15.07;52.72;100636.55;117433;1186;21854;-59
2021/11/01 12:57:28;;;;;;;24.80;17.10;;;;;;;14.86;52.48;100630.91;117546;1186;23432;-60
2021/11/01 12:59:57;;;;;;;24.70;17.00;;;;;;;14.79;52.58;100633.92;117510;1186;23689;-59
2021/11/01 13:02:26;;;;;;;27.70;18.90;;;;;;;14.74;52.58;100632.29;117522;1182;22938;-60
2021/11/01 13:04:57;;;;;;;35.00;25.10;;;;;;;14.70;52.54;100627.25;117511;1185;22915;-59
2021/11/01 13:18:12;;;;;;;30.60;18.10;;;;;;;14.38;52.40;100613.37;117378;1183;21858;-61
2021/11/01 13:21:06;;;;;;;24.90;17.50;;;;;;;14.31;52.39;100610.20;117365;1182;21863;-59
2021/11/01 13:23:37;;;;;;;26.30;19.00;;;;;;;14.22;52.44;100609.52;117501;1184;22661;-59
2021/11/01 13:26:33;;;;;;;40.60;28.00;;;;;;;14.15;52.31;100608.80;117414;1185;21870;-59
2021/11/01 13:39:44;;;;;;;24.90;17.40;;;;;;;13.93;52.39;100606.45;117594;1179;21858;-59
2021/11/01 13:42:15;;;;;;;27.20;18.50;;;;;;;13.93;52.52;100610.36;117402;1186;21895;-60
2021/11/01 13:44:44;;;;;;;28.20;20.30;;;;;;;13.90;52.43;100606.88;117531;1185;21836;-59
2021/11/01 13:47:17;;;;;;;24.20;16.30;;;;;;;13.88;52.48;100613.65;117542;1186;22957;-60
2021/11/01 13:49:48;;;;;;;20.50;15.40;;;;;;;13.86;52.49;100615.27;117485;1182;23468;-60
2021/11/01 13:52:54;;;;;;;23.20;15.80;;;;;;;13.82;52.46;100606.70;117609;1186;22986;-60
2021/11/01 13:57:54;;;;;;;20.80;14.60;;;;;;;13.73;52.39;100600.20;117235;1188;23440;-59
2021/11/01 14:00:34;;;;;;;21.00;14.10;;;;;;;13.67;52.25;100597.71;117367;1185;22159;-60
2021/11/01 14:11:57;;;;;;;23.10;18.00;;;;;;;13.46;52.39;100591.27;117447;1186;23526;-60
2021/11/01 15:07:27;;;;;;;31.90;20.30;;;;;;;12.80;52.52;100605.72;117513;1182;24175;-59
2021/11/01 15:12:40;;;;;;;32.70;20.90;;;;;;;12.84;52.77;100602.46;117388;1185;23439;-60
2021/11/01 15:20:41;;;;;;;28.10;19.30;;;;;;;12.84;52.66;100607.73;117278;1185;22960;-60
2021/11/01 15:39:57;;;;;;;28.80;19.20;;;;;;;12.71;52.48;100596.17;117445;1185;23469;-62
2021/11/01 15:43:06;;;;;;;23.50;16.50;;;;;;;12.70;52.49;100597.08;117344;1182;21845;-62
2021/11/01 16:18:47;;;;;;;53.90;35.50;;;;;;;12.52;52.80;100586.83;117402;1183;23535;-65
2021/11/01 16:21:19;;;;;;;51.60;35.90;;;;;;;12.53;52.60;100583.83;117419;1183;22547;-65
2021/11/01 16:23:48;;;;;;;50.40;35.40;;;;;;;12.53;52.71;100583.65;117442;1184;22980;-66
2021/11/01 16:28:51;;;;;;;43.70;31.00;;;;;;;12.51;52.76;100591.77;117555;1183;23337;-65
2021/11/01 16:31:26;;;;;;;41.10;28.60;;;;;;;12.51;52.67;100592.66;117571;1182;24136;-65
2021/11/01 16:34:00;;;;;;;40.30;26.70;;;;;;;12.50;52.81;100594.08;117411;1186;21846;-66
2021/11/01 16:39:47;;;;;;;34.00;23.90;;;;;;;12.47;52.83;100596.58;117543;1182;23442;-65
2021/11/01 16:42:17;;;;;;;38.90;26.00;;;;;;;12.46;52.82;100597.13;117517;1185;23465;-65
2021/11/01 16:44:47;;;;;;;37.50;24.80;;;;;;;12.46;52.78;100604.70;117460;1183;22912;-66
2021/11/01 16:47:17;;;;;;;39.20;27.20;;;;;;;12.46;52.76;100607.16;117453;1183;21858;-65
2021/11/01 16:49:48;;;;;;;41.90;28.10;;;;;;;12.45;52.92;100609.98;117399;1184;22657;-66
2021/11/01 16:52:19;;;;;;;44.50;29.20;;;;;;;12.44;52.73;100608.59;117164;1184;23624;-66
2021/11/01 16:54:51;;;;;;;44.80;28.90;;;;;;;12.44;52.88;100607.55;117464;1176;22900;-66
2021/11/01 16:57:35;;;;;;;43.50;28.30;;;;;;;12.44;52.82;100606.30;117431;1182;23459;-66
2021/11/01 17:09:08;;;;;;;42.00;27.80;;;;;;;12.44;53.04;100602.78;117394;1176;21857;-66
2021/11/01 17:22:36;;;;;;;41.20;28.90;;;;;;;12.38;53.07;100587.23;117401;1182;21858;-66
2021/11/01 18:37:39;;;;;;;55.50;35.40;;;;;;;12.27;53.03;100512.64;117432;1185;22857;-68
2021/11/01 18:51:35;;;;;;;51.10;31.80;;;;;;;12.17;53.08;100499.08;116806;1189;23447;-67
2021/11/01 18:54:16;;;;;;;50.00;32.00;;;;;;;12.17;53.00;100500.66;116695;1190;21982;-67
2021/11/01 18:56:45;;;;;;;52.30;32.90;;;;;;;12.16;53.05;100497.15;116662;1190;21973;-67
2021/11/01 18:59:14;;;;;;;53.80;33.20;;;;;;;12.16;53.14;100495.91;116858;1189;21868;-67
2021/11/01 19:01:51;;;;;;;54.20;32.60;;;;;;;12.18;53.09;100493.08;116769;1191;21870;-67
2021/11/01 19:04:26;;;;;;;56.00;33.90;;;;;;;12.17;53.16;100490.45;118382;1190;21905;-68
2021/11/01 19:07:05;;;;;;;50.10;31.90;;;;;;;12.16;53.12;100485.54;118784;1188;21826;-69
2021/11/01 20:09:21;;;;;;;46.40;28.50;;;;;;;11.97;53.27;100445.38;117510;1179;21858;-70
2021/11/01 21:24:30;;;;;;;43.70;27.00;;;;;;;11.99;53.19;100430.59;117130;1185;23472;-69
2021/11/01 21:27:21;;;;;;;37.20;23.20;;;;;;;11.80;53.76;100375.54;117613;1185;23560;-68
2021/11/01 21:29:50;;;;;;;38.20;25.00;;;;;;;11.81;53.60;100375.86;117443;1189;21856;-68
2021/11/01 21:32:18;;;;;;;37.50;24.70;;;;;;;11.79;53.69;100367.80;117439;1185;22648;-68
2021/11/01 21:35:08;;;;;;;40.20;26.30;;;;;;;11.79;53.66;100365.54;117496;1183;24174;-68
2021/11/01 21:37:37;;;;;;;38.50;23.70;;;;;;;11.78;53.79;100359.21;117413;1185;23423;-68
2021/11/01 21:40:07;;;;;;;34.80;23.70;;;;;;;11.78;53.58;100356.40;117415;1182;22958;-68
2021/11/01 21:42:36;;;;;;;36.20;21.90;;;;;;;11.79;53.73;100357.80;117401;1185;23544;-69
2021/11/01 21:45:05;;;;;;;35.30;22.80;;;;;;;11.79;53.60;100355.33;117535;1184;23465;-68
2021/11/01 21:47:35;;;;;;;34.60;22.20;;;;;;;11.77;53.70;100356.58;117587;1184;21854;-68
2021/11/01 21:50:05;;;;;;;;;;;;;;;11.77;53.64;100352.89;117583;1180;22934;-69
2021/11/01 21:52:56;;;;;;;33.30;20.50;;;;;;;11.77;53.63;100349.55;117499;1185;23622;-68
2021/11/01 21:55:25;;;;;;;35.50;21.70;;;;;;;11.76;53.77;100342.36;117569;1176;23072;-68
2021/11/01 21:58:06;;;;;;;34.30;22.10;;;;;;;11.74;53.82;100338.18;117459;1176;21868;-68
2021/11/01 22:25:09;;;;;;;28.70;20.20;;;;;;;11.64;53.67;100303.73;117503;1176;23507;-68
2021/11/01 22:57:54;;;;;;;31.20;20.20;;;;;;;11.43;54.13;100290.21;117453;1185;23589;-68
2021/11/01 23:00:29;;;;;;;;;;;;;;;11.43;54.01;100285.98;117415;1182;23420;-68
2021/11/01 23:03:03;;;;;;;28.90;18.20;;;;;;;11.42;53.99;100278.12;117496;1186;21884;-68
2021/11/01 23:33:34;;;;;;;32.40;21.00;;;;;;;11.49;54.11;100248.99;117426;1185;21845;-68
2021/11/01 23:36:03;;;;;;;30.00;19.40;;;;;;;11.49;53.96;100246.19;117429;1179;23455;-68
2021/11/01 23:38:32;;;;;;;30.50;20.10;;;;;;;11.50;53.97;100243.52;117427;1186;22103;-68
2021/11/01 23:41:00;;;;;;;31.10;19.40;;;;;;;11.50;53.93;100240.55;117516;1183;21873;-67
2021/11/01 23:43:29;;;;;;;30.20;18.90;;;;;;;11.51;53.92;100241.05;117533;1183;24239;-67
2021/11/01 23:45:57;;;;;;;31.40;19.80;;;;;;;11.53;53.93;100238.04;117526;1184;21879;-68
2021/11/01 23:48:26;;;;;;;32.40;19.80;;;;;;;11.53;53.96;100233.98;117561;1186;23696;-68
2021/11/01 23:50:55;;;;;;;24.50;16.60;;;;;;;11.52;54.00;100233.13;117588;1179;21864;-67
2021/11/01 23:53:45;;;;;;;24.20;17.00;;;;;;;11.54;53.91;100231.67;117435;1182;23438;-67
2021/11/01 23:56:14;;;;;;;24.50;16.90;;;;;;;11.55;54.12;100230.24;117449;1185;23666;-68
2021/11/01 23:58:43;;;;;;;29.70;18.20;;;;;;;11.56;53.97;100231.82;117426;1176;21864;-68
